createdAt,value
2022-07-28T00:02:19.032Z,101560.31
2022-07-28T00:04:45.951Z,101563.06
2022-07-28T00:07:12.385Z,101560.31
2022-07-28T00:09:38.915Z,101564.09
2022-07-28T00:12:06.419Z,101570.59
2022-07-28T00:14:32.914Z,101565.16
2022-07-28T00:17:00.665Z,101560.28
2022-07-28T00:19:27.219Z,101563.50
2022-07-28T00:21:53.756Z,101565.91
2022-07-28T00:24:20.221Z,101563.75
2022-07-28T00:26:46.996Z,101562.63
2022-07-28T00:29:13.527Z,101564.28
2022-07-28T00:31:40.040Z,101565.59
2022-07-28T00:34:07.130Z,101563.69
2022-07-28T00:36:33.874Z,101564.78
2022-07-28T00:39:00.976Z,101569.38
2022-07-28T00:41:29.980Z,101562.53
2022-07-28T00:43:56.931Z,101558.16
2022-07-28T00:46:24.052Z,101564.94
2022-07-28T00:48:54.220Z,101558.38
2022-07-28T00:51:23.587Z,101566.06
2022-07-28T00:53:50.927Z,101563.38
2022-07-28T00:56:18.808Z,101567.34
2022-07-28T00:58:47.213Z,101572.28
2022-07-28T01:01:17.621Z,101563.03
2022-07-28T01:03:47.101Z,101561.38
2022-07-28T01:06:16.523Z,101567.56
2022-07-28T01:09:11.382Z,101559.03
2022-07-28T01:11:45.670Z,101564.44
2022-07-28T01:14:30.022Z,101567.28
2022-07-28T01:17:20.644Z,101580.09
2022-07-28T01:20:03.819Z,101575.19
2022-07-28T01:22:35.329Z,101575.44
2022-07-28T01:25:30.237Z,101572.88
2022-07-28T01:28:15.496Z,101576.38
2022-07-28T01:30:44.432Z,101575.53
2022-07-28T01:33:25.569Z,101571.91
2022-07-28T01:35:57.029Z,101575.13
2022-07-28T01:38:24.843Z,101579.34
2022-07-28T01:40:56.704Z,101574.13
2022-07-28T01:43:26.274Z,101568.94
2022-07-28T01:45:55.373Z,101565.38
2022-07-28T01:48:24.811Z,101568.34
2022-07-28T01:50:53.167Z,101576.25
2022-07-28T01:53:20.637Z,101558.47
2022-07-28T01:55:50.920Z,101557.16
2022-07-28T01:58:22.024Z,101559.25
2022-07-28T02:00:51.148Z,101546.06
2022-07-28T02:03:19.417Z,101554.00
2022-07-28T02:05:50.214Z,101552.69
2022-07-28T02:08:20.896Z,101545.84
2022-07-28T02:11:10.270Z,101541.91
2022-07-28T02:13:37.857Z,101537.53
2022-07-28T02:16:10.257Z,101538.03
2022-07-28T02:18:39.282Z,101533.69
2022-07-28T02:21:07.342Z,101534.81
2022-07-28T02:23:35.565Z,101533.34
2022-07-28T02:26:07.169Z,101527.66
2022-07-28T02:28:34.688Z,101533.66
2022-07-28T02:31:09.069Z,101529.81
2022-07-28T02:33:58.534Z,101540.19
2022-07-28T02:36:29.179Z,101530.56
2022-07-28T02:39:03.888Z,101528.13
2022-07-28T02:41:33.800Z,101536.69
2022-07-28T02:44:03.771Z,101541.13
2022-07-28T02:46:39.062Z,101540.72
2022-07-28T02:49:12.392Z,101553.00
2022-07-28T02:51:42.135Z,101535.19
2022-07-28T02:54:10.756Z,101545.00
2022-07-28T02:56:40.062Z,101553.84
2022-07-28T02:59:09.122Z,101545.28
2022-07-28T03:01:36.791Z,101548.16
2022-07-28T03:04:03.818Z,101545.75
2022-07-28T03:06:30.796Z,101548.22
2022-07-28T03:08:57.610Z,101551.53
2022-07-28T03:11:24.132Z,101559.75
2022-07-28T03:13:50.926Z,101552.69
2022-07-28T03:16:17.900Z,101557.09
2022-07-28T03:18:44.437Z,101551.13
2022-07-28T03:21:10.919Z,101551.13
2022-07-28T03:23:42.540Z,101554.06
2022-07-28T03:26:17.324Z,101545.09
2022-07-28T03:28:45.955Z,101562.13
2022-07-28T03:31:14.397Z,101562.13
2022-07-28T03:33:42.131Z,101561.25
2022-07-28T03:36:13.620Z,101561.81
2022-07-28T03:38:49.217Z,101564.59
2022-07-28T03:41:18.588Z,101561.38
2022-07-28T03:43:45.489Z,101572.69
2022-07-28T03:46:13.580Z,101574.03
2022-07-28T03:48:40.316Z,101572.97
2022-07-28T03:51:06.862Z,101583.31
2022-07-28T03:53:34.680Z,101582.81
2022-07-28T03:56:03.237Z,101582.50
2022-07-28T03:58:31.066Z,101582.97
2022-07-28T04:00:58.073Z,101580.88
2022-07-28T04:03:43.192Z,101582.50
2022-07-28T04:06:13.931Z,101580.59
2022-07-28T04:08:41.611Z,101581.84
2022-07-28T04:11:08.267Z,101580.50
2022-07-28T04:13:37.183Z,101576.41
2022-07-28T04:16:05.176Z,101578.28
2022-07-28T04:18:32.121Z,101572.91
2022-07-28T04:20:59.206Z,101578.97
2022-07-28T04:23:25.791Z,101578.59
2022-07-28T04:25:52.245Z,101574.56
2022-07-28T04:28:18.721Z,101570.22
2022-07-28T04:30:45.282Z,101569.16
2022-07-28T04:33:12.819Z,101572.19
2022-07-28T04:35:39.332Z,101567.28
2022-07-28T04:38:06.073Z,101574.94
2022-07-28T04:40:34.266Z,101573.88
2022-07-28T04:43:02.244Z,101566.78
2022-07-28T04:45:29.278Z,101567.75
2022-07-28T04:47:55.847Z,101574.50
2022-07-28T04:50:22.337Z,101569.00
2022-07-28T04:52:58.990Z,101574.97
2022-07-28T04:55:26.151Z,101577.13
2022-07-28T04:57:52.719Z,101571.19
2022-07-28T05:00:19.865Z,101573.47
2022-07-28T05:02:49.459Z,101580.44
2022-07-28T05:05:16.424Z,101576.41
2022-07-28T05:07:43.455Z,101574.06
2022-07-28T05:10:11.998Z,101580.72
2022-07-28T05:12:38.852Z,101580.84
2022-07-28T05:15:06.564Z,101580.13
2022-07-28T05:17:33.316Z,101573.44
2022-07-28T05:20:00.295Z,101576.16
2022-07-28T05:22:41.111Z,101575.63
2022-07-28T05:25:13.710Z,101581.69
2022-07-28T05:27:40.121Z,101578.13
2022-07-28T05:30:07.335Z,101582.19
2022-07-28T05:32:33.972Z,101583.34
2022-07-28T05:35:00.507Z,101585.75
2022-07-28T05:37:27.561Z,101588.22
2022-07-28T05:39:54.014Z,101587.09
2022-07-28T05:42:20.456Z,101586.88
2022-07-28T05:44:46.878Z,101587.16
2022-07-28T05:47:13.487Z,101593.41
2022-07-28T05:49:39.904Z,101596.22
2022-07-28T05:52:06.559Z,101593.00
2022-07-28T05:54:33.178Z,101590.56
2022-07-28T05:56:59.955Z,101594.63
2022-07-28T05:59:27.558Z,101594.91
2022-07-28T06:01:54.127Z,101602.03
2022-07-28T06:04:28.757Z,101599.03
2022-07-28T06:06:55.811Z,101597.97
2022-07-28T06:09:22.231Z,101604.25
2022-07-28T06:11:50.394Z,101605.31
2022-07-28T06:14:18.013Z,101605.31
2022-07-28T06:16:45.074Z,101613.75
2022-07-28T06:19:11.629Z,101615.94
2022-07-28T06:21:38.108Z,101607.50
2022-07-28T06:24:05.435Z,101613.25
2022-07-28T06:26:32.476Z,101606.47
2022-07-28T06:29:09.126Z,101602.91
2022-07-28T06:31:35.806Z,101612.19
2022-07-28T06:34:02.930Z,101614.41
2022-07-28T06:36:30.523Z,101611.16
2022-07-28T06:39:01.450Z,101602.97
2022-07-28T06:41:29.516Z,101596.97
2022-07-28T06:44:08.482Z,101604.06
2022-07-28T06:46:35.936Z,101602.97
2022-07-28T06:49:04.239Z,101609.28
2022-07-28T06:51:32.201Z,101604.66
2022-07-28T06:53:58.801Z,101605.69
2022-07-28T06:56:26.411Z,101602.91
2022-07-28T06:58:53.123Z,101604.19
2022-07-28T07:01:19.744Z,101605.00
2022-07-28T07:03:46.860Z,101605.78
2022-07-28T07:06:13.407Z,101613.69
2022-07-28T07:08:39.872Z,101606.22
2022-07-28T07:11:06.611Z,101607.25
2022-07-28T07:13:33.214Z,101606.38
2022-07-28T07:16:00.309Z,101603.00
2022-07-28T07:18:27.400Z,101605.94
2022-07-28T07:20:56.256Z,101589.38
2022-07-28T07:23:22.757Z,101596.88
2022-07-28T07:25:49.343Z,101597.16
2022-07-28T07:28:15.823Z,101603.66
2022-07-28T07:30:43.281Z,101605.25
2022-07-28T07:33:10.764Z,101599.50
2022-07-28T07:35:37.940Z,101595.72
2022-07-28T07:38:04.595Z,101600.44
2022-07-28T07:40:31.779Z,101596.34
2022-07-28T07:42:58.292Z,101594.75
2022-07-28T07:45:24.853Z,101590.38
2022-07-28T07:47:51.343Z,101594.63
2022-07-28T07:50:17.819Z,101595.22
2022-07-28T07:52:44.259Z,101596.38
2022-07-28T07:55:10.755Z,101595.53
2022-07-28T07:57:37.374Z,101601.81
2022-07-28T08:00:05.132Z,101600.69
2022-07-28T08:02:31.863Z,101596.84
2022-07-28T08:04:58.464Z,101591.56
2022-07-28T08:07:25.119Z,101582.22
2022-07-28T08:09:52.380Z,101587.31
2022-07-28T08:12:25.012Z,101578.22
2022-07-28T08:14:53.355Z,101566.88
2022-07-28T08:17:25.367Z,101576.13
2022-07-28T08:19:53.103Z,101578.97
2022-07-28T08:22:19.795Z,101578.47
2022-07-28T08:24:46.370Z,101570.53
2022-07-28T08:27:12.900Z,101568.50
2022-07-28T08:29:39.399Z,101577.38
2022-07-28T08:32:07.798Z,101574.56
2022-07-28T08:34:35.975Z,101579.13
2022-07-28T08:37:04.976Z,101568.19
2022-07-28T08:39:33.427Z,101576.50
2022-07-28T08:42:25.290Z,101580.94
2022-07-28T08:44:57.454Z,101585.41
2022-07-28T08:47:35.655Z,101584.09
2022-07-28T08:50:07.340Z,101574.66
2022-07-28T08:52:34.087Z,101573.75
2022-07-28T08:55:04.764Z,101572.56
2022-07-28T08:57:36.555Z,101568.88
2022-07-28T09:00:05.110Z,101565.97
2022-07-28T09:02:33.532Z,101568.81
2022-07-28T09:05:01.390Z,101564.06
2022-07-28T09:07:28.189Z,101565.63
2022-07-28T09:10:02.411Z,101568.63
2022-07-28T09:12:30.194Z,101561.16
2022-07-28T09:14:56.659Z,101553.16
2022-07-28T09:17:23.110Z,101549.63
2022-07-28T09:19:51.035Z,101549.69
2022-07-28T09:22:17.566Z,101546.28
2022-07-28T09:24:47.110Z,101544.22
2022-07-28T09:27:15.409Z,101553.84
2022-07-28T09:29:47.238Z,101543.81
2022-07-28T09:32:15.452Z,101550.44
2022-07-28T09:34:44.741Z,101554.47
2022-07-28T09:37:28.379Z,101552.69
2022-07-28T09:40:10.853Z,101551.59
2022-07-28T09:42:50.361Z,101545.22
2022-07-28T09:45:25.317Z,101543.34
2022-07-28T09:48:12.972Z,101546.88
2022-07-28T09:50:43.220Z,101546.59
2022-07-28T09:53:27.563Z,101545.78
2022-07-28T09:56:07.843Z,101550.59
2022-07-28T09:58:35.859Z,101541.19
2022-07-28T10:01:04.328Z,101542.00
2022-07-28T10:03:31.651Z,101540.03
2022-07-28T10:05:59.367Z,101541.56
2022-07-28T10:08:42.004Z,101533.84
2022-07-28T10:11:09.805Z,101531.44
2022-07-28T10:13:51.193Z,101539.06
2022-07-28T10:16:20.725Z,101528.25
2022-07-28T10:18:48.230Z,101533.31
2022-07-28T10:21:18.382Z,101522.91
2022-07-28T10:23:49.711Z,101528.28
2022-07-28T10:26:19.388Z,101518.53
2022-07-28T10:28:52.437Z,101521.09
2022-07-28T10:31:29.771Z,101520.75
2022-07-28T10:33:59.685Z,101521.34
2022-07-28T10:36:26.863Z,101510.00
2022-07-28T10:39:05.727Z,101511.06
2022-07-28T10:41:38.475Z,101501.06
2022-07-28T10:44:05.993Z,101503.69
2022-07-28T10:46:33.927Z,101499.06
2022-07-28T10:49:03.667Z,101500.19
2022-07-28T10:51:31.648Z,101501.50
2022-07-28T10:54:08.807Z,101504.31
2022-07-28T10:56:45.346Z,101500.44
2022-07-28T10:59:55.795Z,101501.78
2022-07-28T11:02:51.161Z,101490.63
2022-07-28T11:05:47.915Z,101490.34
2022-07-28T11:08:18.250Z,101488.81
2022-07-28T11:10:48.387Z,101481.41
2022-07-28T11:13:39.475Z,101485.66
2022-07-28T11:16:13.476Z,101478.44
2022-07-28T11:22:18.907Z,101474.38
2022-07-28T11:25:19.715Z,101471.47
2022-07-28T11:27:51.135Z,101466.28
2022-07-28T11:30:35.769Z,101476.78
2022-07-28T11:33:04.843Z,101472.31
2022-07-28T11:35:55.409Z,101463.16
2022-07-28T11:38:23.072Z,101464.06
2022-07-28T11:40:52.077Z,101464.78
2022-07-28T11:43:22.212Z,101450.41
2022-07-28T11:45:55.762Z,101445.22
2022-07-28T11:48:23.227Z,101444.88
2022-07-28T11:51:04.684Z,101445.34
2022-07-28T11:53:56.448Z,101438.84
2022-07-28T11:56:36.313Z,101431.94
2022-07-28T11:59:11.491Z,101428.81
2022-07-28T12:01:38.698Z,101429.66
2022-07-28T12:04:13.303Z,101432.00
2022-07-28T12:06:42.479Z,101433.63
2022-07-28T12:09:11.018Z,101436.44
2022-07-28T12:11:41.571Z,101429.69
2022-07-28T12:14:09.009Z,101436.63
2022-07-28T12:16:39.691Z,101441.78
2022-07-28T12:19:08.087Z,101438.72
2022-07-28T12:21:49.222Z,101436.72
2022-07-28T12:24:21.797Z,101429.91
2022-07-28T12:26:50.225Z,101425.94
2022-07-28T12:29:17.628Z,101421.38
2022-07-28T12:31:59.277Z,101422.19
2022-07-28T12:34:30.926Z,101421.47
2022-07-28T12:37:04.720Z,101414.13
2022-07-28T12:39:34.704Z,101409.94
2022-07-28T12:42:06.545Z,101403.06
2022-07-28T12:44:45.112Z,101400.66
2022-07-28T12:47:13.570Z,101400.56
2022-07-28T12:49:42.744Z,101406.00
2022-07-28T12:52:23.844Z,101406.81
2022-07-28T12:54:54.220Z,101400.75
2022-07-28T12:57:50.747Z,101396.13
2022-07-28T13:00:23.858Z,101391.50
2022-07-28T13:02:53.427Z,101398.31
2022-07-28T13:05:53.365Z,101398.53
2022-07-28T13:08:20.776Z,101391.22
2022-07-28T13:10:48.676Z,101390.59
2022-07-28T13:13:19.231Z,101391.75
2022-07-28T13:16:06.082Z,101389.63
2022-07-28T13:18:40.337Z,101386.38
2022-07-28T13:21:06.836Z,101385.75
2022-07-28T13:23:33.306Z,101385.84
2022-07-28T13:25:59.955Z,101382.69
2022-07-28T13:28:27.648Z,101384.75
2022-07-28T13:30:54.857Z,101374.91
2022-07-28T13:33:22.048Z,101372.44
2022-07-28T13:35:50.154Z,101377.78
2022-07-28T13:38:17.699Z,101376.88
2022-07-28T13:40:44.360Z,101367.66
2022-07-28T13:43:11.411Z,101366.91
2022-07-28T13:45:38.429Z,101365.75
2022-07-28T13:48:05.661Z,101365.69
2022-07-28T13:50:33.166Z,101361.78
2022-07-28T13:52:59.846Z,101359.69
2022-07-28T13:55:28.308Z,101355.75
2022-07-28T13:57:55.020Z,101350.03
2022-07-28T14:00:23.858Z,101342.69
2022-07-28T14:02:51.208Z,101334.97
2022-07-28T14:05:17.854Z,101331.28
2022-07-28T14:07:48.075Z,101335.00
2022-07-28T14:10:16.704Z,101336.72
2022-07-28T14:12:44.920Z,101336.84
2022-07-28T14:15:13.563Z,101332.28
2022-07-28T14:17:43.755Z,101330.19
2022-07-28T14:20:13.321Z,101323.81
2022-07-28T14:22:39.810Z,101331.03
2022-07-28T14:25:06.941Z,101328.94
2022-07-28T14:27:34.277Z,101328.75
2022-07-28T14:30:03.779Z,101331.44
2022-07-28T14:32:30.991Z,101325.03
2022-07-28T14:34:57.501Z,101317.78
2022-07-28T14:37:27.412Z,101310.00
2022-07-28T14:39:54.921Z,101318.97
2022-07-28T14:42:22.767Z,101317.34
2022-07-28T14:44:50.195Z,101311.97
2022-07-28T14:47:17.643Z,101315.75
2022-07-28T14:49:57.940Z,101307.75
2022-07-28T14:52:26.941Z,101311.09
2022-07-28T14:54:55.738Z,101306.19
2022-07-28T14:57:48.205Z,101306.03
2022-07-28T15:00:11.690Z,101303.47
2022-07-28T15:02:38.619Z,101308.06
2022-07-28T15:05:06.439Z,101300.31
2022-07-28T15:07:33.039Z,101296.97
2022-07-28T15:09:59.667Z,101295.22
2022-07-28T15:12:26.155Z,101305.88
2022-07-28T15:14:52.738Z,101300.81
2022-07-28T15:17:19.681Z,101300.22
2022-07-28T15:19:47.447Z,101297.72
2022-07-28T15:22:14.091Z,101300.69
2022-07-28T15:24:42.149Z,101303.66
2022-07-28T15:27:12.174Z,101304.63
2022-07-28T15:29:38.759Z,101289.44
2022-07-28T15:32:06.471Z,101292.00
2022-07-28T15:34:37.316Z,101292.38
2022-07-28T15:37:04.039Z,101301.38
2022-07-28T15:39:31.012Z,101296.34
2022-07-28T15:41:58.742Z,101295.44
2022-07-28T15:44:26.528Z,101290.59
2022-07-28T15:46:53.166Z,101294.69
2022-07-28T15:49:19.852Z,101301.50
2022-07-28T15:51:46.417Z,101288.28
2022-07-28T15:54:13.512Z,101288.41
2022-07-28T15:56:41.916Z,101284.81
2022-07-28T15:59:09.140Z,101284.53
2022-07-28T16:01:35.928Z,101280.94
2022-07-28T16:04:04.091Z,101269.59
2022-07-28T16:06:51.243Z,101270.84
2022-07-28T16:09:17.785Z,101271.44
2022-07-28T16:11:44.313Z,101268.09
2022-07-28T16:14:11.403Z,101265.50
2022-07-28T16:16:38.438Z,101268.19
2022-07-28T16:19:20.113Z,101263.59
2022-07-28T16:21:51.735Z,101268.72
2022-07-28T16:24:18.348Z,101264.31
2022-07-28T16:26:44.995Z,101268.03
2022-07-28T16:29:11.486Z,101259.00
2022-07-28T16:31:43.315Z,101263.53
2022-07-28T16:34:11.874Z,101266.06
2022-07-28T16:36:41.442Z,101258.34
2022-07-28T16:39:09.375Z,101258.88
2022-07-28T16:41:47.512Z,101262.19
2022-07-28T16:44:16.098Z,101256.03
2022-07-28T16:46:43.060Z,101255.53
2022-07-28T16:49:10.248Z,101264.06
2022-07-28T16:51:36.904Z,101256.16
2022-07-28T16:54:04.990Z,101266.97
2022-07-28T16:56:31.528Z,101266.63
2022-07-28T16:59:00.735Z,101264.84
2022-07-28T17:01:27.453Z,101261.50
2022-07-28T17:03:54.041Z,101267.53
2022-07-28T17:06:20.474Z,101267.09
2022-07-28T17:08:46.972Z,101255.91
2022-07-28T17:11:13.455Z,101259.69
2022-07-28T17:13:45.054Z,101256.34
2022-07-28T17:16:12.173Z,101264.31
2022-07-28T17:18:38.732Z,101255.44
2022-07-28T17:21:06.779Z,101261.34
2022-07-28T17:23:36.381Z,101258.00
2022-07-28T17:27:11.896Z,101261.34
2022-07-28T17:28:52.457Z,101261.22
2022-07-28T17:31:18.925Z,101265.50
2022-07-28T17:33:45.423Z,101264.47
2022-07-28T17:36:11.837Z,101261.00
2022-07-28T17:38:38.465Z,101265.72
2022-07-28T17:41:05.023Z,101266.88
2022-07-28T17:43:33.088Z,101263.66
2022-07-28T17:46:00.966Z,101261.00
2022-07-28T17:48:28.423Z,101254.63
2022-07-28T17:50:54.921Z,101255.91
2022-07-28T17:53:21.479Z,101256.94
2022-07-28T17:56:00.798Z,101262.84
2022-07-28T17:58:31.052Z,101258.31
2022-07-28T18:01:09.766Z,101253.22
2022-07-28T18:03:58.303Z,101253.91
2022-07-28T18:06:35.363Z,101254.91
2022-07-28T18:09:13.472Z,101260.78
2022-07-28T18:11:57.304Z,101260.09
2022-07-28T18:14:28.680Z,101258.34
2022-07-28T18:16:56.271Z,101261.66
2022-07-28T18:19:22.899Z,101265.91
2022-07-28T18:21:49.453Z,101263.22
2022-07-28T18:24:16.372Z,101271.16
2022-07-28T18:26:43.618Z,101271.00
2022-07-28T18:29:10.071Z,101270.66
2022-07-28T18:31:41.266Z,101266.38
2022-07-28T18:34:12.604Z,101264.72
2022-07-28T18:36:39.260Z,101266.97
2022-07-28T18:39:05.745Z,101263.47
2022-07-28T18:41:34.467Z,101266.44
2022-07-28T18:44:13.824Z,101253.19
2022-07-28T18:46:40.642Z,101257.09
2022-07-28T18:49:07.110Z,101263.56
2022-07-28T18:51:33.575Z,101267.94
2022-07-28T18:54:00.040Z,101272.38
2022-07-28T18:56:26.747Z,101265.41
2022-07-28T18:58:55.890Z,101262.75
2022-07-28T19:01:23.961Z,101263.88
2022-07-28T19:03:50.877Z,101264.56
2022-07-28T19:06:17.322Z,101268.50
2022-07-28T19:08:43.928Z,101267.69
2022-07-28T19:11:10.520Z,101260.59
2022-07-28T19:13:36.978Z,101263.84
2022-07-28T19:16:03.566Z,101272.03
2022-07-28T19:18:30.019Z,101271.19
2022-07-28T19:20:56.859Z,101267.66
2022-07-28T19:23:30.336Z,101268.16
2022-07-28T19:25:57.451Z,101272.56
2022-07-28T19:28:24.952Z,101277.41
2022-07-28T19:30:52.149Z,101275.16
2022-07-28T19:33:21.808Z,101284.06
2022-07-28T19:35:52.005Z,101275.63
2022-07-28T19:38:19.024Z,101287.47
2022-07-28T19:40:46.124Z,101291.03
2022-07-28T19:43:12.640Z,101286.50
2022-07-28T19:45:39.055Z,101284.53
2022-07-28T19:48:07.193Z,101287.78
2022-07-28T19:50:36.215Z,101293.13
2022-07-28T19:53:02.857Z,101295.88
2022-07-28T19:55:32.202Z,101295.56
2022-07-28T19:57:59.329Z,101292.75
2022-07-28T20:00:26.036Z,101296.81
2022-07-28T20:02:52.947Z,101300.34
2022-07-28T20:05:20.762Z,101300.69
2022-07-28T20:07:47.615Z,101300.63
2022-07-28T20:10:14.119Z,101304.22
2022-07-28T20:12:41.952Z,101301.09
2022-07-28T20:15:09.307Z,101301.50
2022-07-28T20:17:38.866Z,101304.53
2022-07-28T20:20:11.610Z,101309.75
2022-07-28T20:22:39.102Z,101310.06
2022-07-28T20:25:06.090Z,101308.91
2022-07-28T20:27:40.237Z,101311.16
2022-07-28T20:30:08.911Z,101322.44
2022-07-28T20:32:36.767Z,101325.28
2022-07-28T20:35:05.664Z,101317.97
2022-07-28T20:37:36.155Z,101318.09
2022-07-28T20:40:05.904Z,101327.84
2022-07-28T20:42:32.351Z,101320.91
2022-07-28T20:44:59.245Z,101318.59
2022-07-28T20:47:27.642Z,101318.53
2022-07-28T20:49:55.107Z,101318.72
2022-07-28T20:52:23.024Z,101321.16
2022-07-28T20:54:54.070Z,101315.41
2022-07-28T20:57:22.863Z,101319.06
2022-07-28T20:59:51.240Z,101317.44
2022-07-28T21:02:20.346Z,101324.78
2022-07-28T21:04:50.262Z,101316.78
2022-07-28T21:07:59.969Z,101317.44
2022-07-28T21:10:06.712Z,101322.31
2022-07-28T21:12:33.852Z,101327.63
2022-07-28T21:15:00.511Z,101327.63
2022-07-28T21:17:27.279Z,101337.59
2022-07-28T21:19:54.176Z,101336.19
2022-07-28T21:22:22.780Z,101345.75
2022-07-28T21:24:54.635Z,101349.00
2022-07-28T21:27:25.882Z,101354.41
2022-07-28T21:32:19.206Z,101346.78
2022-07-28T21:34:46.064Z,101350.75
2022-07-28T21:37:13.614Z,101353.09
2022-07-28T21:39:40.511Z,101348.22
2022-07-28T21:42:09.299Z,101352.38
2022-07-28T21:44:37.212Z,101352.19
2022-07-28T21:47:04.256Z,101355.22
2022-07-28T21:49:31.349Z,101358.06
2022-07-28T21:51:58.381Z,101350.94
2022-07-28T21:54:25.148Z,101360.72
2022-07-28T21:56:51.977Z,101357.47
2022-07-28T21:59:19.140Z,101362.97
2022-07-28T22:01:46.183Z,101361.72
2022-07-28T22:04:13.063Z,101369.16
2022-07-28T22:06:39.879Z,101365.88
2022-07-28T22:09:06.432Z,101369.75
2022-07-28T22:11:33.065Z,101371.38
2022-07-28T22:13:59.639Z,101373.63
2022-07-28T22:16:26.257Z,101373.88
2022-07-28T22:18:54.204Z,101372.81
2022-07-28T22:21:20.812Z,101373.69
2022-07-28T22:23:47.301Z,101376.13
2022-07-28T22:26:13.815Z,101373.63
2022-07-28T22:28:40.255Z,101376.88
2022-07-28T22:31:09.608Z,101378.81
2022-07-28T22:33:39.744Z,101381.72
2022-07-28T22:36:08.585Z,101391.50
2022-07-28T22:38:35.223Z,101389.66
2022-07-28T22:41:01.877Z,101387.09
2022-07-28T22:43:28.523Z,101393.56
2022-07-28T22:45:55.929Z,101390.06
2022-07-28T22:48:23.296Z,101395.06
2022-07-28T22:50:49.874Z,101394.38
2022-07-28T22:53:16.299Z,101395.66
2022-07-28T22:55:42.778Z,101391.91
2022-07-28T22:58:09.319Z,101390.69
2022-07-28T23:00:36.581Z,101399.44
2022-07-28T23:03:04.575Z,101394.19
2022-07-28T23:05:31.855Z,101402.00
2022-07-28T23:07:58.968Z,101396.22
2022-07-28T23:10:26.872Z,101397.13
2022-07-28T23:12:57.352Z,101393.56
2022-07-28T23:15:40.884Z,101392.41
2022-07-28T23:18:10.050Z,101399.53
2022-07-28T23:20:36.898Z,101400.13
2022-07-28T23:23:03.329Z,101395.56
2022-07-28T23:25:29.775Z,101401.91
2022-07-28T23:27:56.271Z,101398.31
2022-07-28T23:30:23.313Z,101392.91
2022-07-28T23:32:53.201Z,101396.03
2022-07-28T23:35:20.905Z,101394.94
2022-07-28T23:37:47.331Z,101398.78
2022-07-28T23:40:13.837Z,101398.94
2022-07-28T23:42:40.343Z,101390.91
2022-07-28T23:45:07.288Z,101393.88
2022-07-28T23:47:34.355Z,101393.16
2022-07-28T23:50:01.795Z,101393.00
2022-07-28T23:52:28.467Z,101389.44
2022-07-28T23:54:55.251Z,101383.66
2022-07-28T23:57:21.850Z,101386.09
2022-07-28T23:59:48.510Z,101374.75
